createdAt,value
2022-12-14T00:01:23.976Z,29.00
2022-12-14T00:03:22.196Z,28.88
2022-12-14T00:05:20.525Z,26.94
2022-12-14T00:07:18.484Z,25.19
2022-12-14T00:09:16.483Z,28.63
2022-12-14T00:11:14.474Z,28.56
2022-12-14T00:13:12.565Z,29.19
2022-12-14T00:15:10.563Z,29.50
2022-12-14T00:17:08.588Z,29.69
2022-12-14T00:19:06.561Z,29.81
2022-12-14T00:21:04.521Z,29.94
2022-12-14T00:23:02.465Z,30.00
2022-12-14T00:25:00.384Z,30.25
2022-12-14T00:26:58.302Z,30.31
2022-12-14T00:28:57.339Z,30.19
2022-12-14T00:30:58.360Z,30.06
2022-12-14T00:32:56.837Z,29.94
2022-12-14T00:34:54.777Z,29.88
2022-12-14T00:36:52.812Z,29.69
2022-12-14T00:38:51.817Z,29.38
2022-12-14T00:40:50.002Z,29.38
2022-12-14T00:42:47.904Z,29.19
2022-12-14T00:44:46.122Z,28.94
2022-12-14T00:46:44.062Z,28.81
2022-12-14T00:48:42.065Z,28.63
2022-12-14T00:50:40.371Z,28.56
2022-12-14T00:52:38.596Z,28.31
2022-12-14T00:54:36.682Z,28.38
2022-12-14T00:56:34.711Z,28.13
2022-12-14T00:58:32.749Z,28.00
2022-12-14T01:00:30.722Z,28.00
2022-12-14T01:02:28.989Z,27.94
2022-12-14T01:04:27.102Z,27.94
2022-12-14T01:06:25.098Z,27.31
2022-12-14T01:08:22.990Z,27.31
2022-12-14T01:10:20.883Z,27.25
2022-12-14T01:12:18.841Z,27.13
2022-12-14T01:14:16.797Z,27.06
2022-12-14T01:16:14.836Z,27.13
2022-12-14T01:18:13.084Z,27.13
2022-12-14T01:20:11.026Z,27.06
2022-12-14T01:22:10.236Z,27.00
2022-12-14T01:24:08.854Z,26.88
2022-12-14T01:26:06.758Z,26.88
2022-12-14T01:28:05.058Z,26.75
2022-12-14T01:30:03.855Z,26.88
2022-12-14T01:32:01.766Z,26.94
2022-12-14T01:33:59.703Z,26.81
2022-12-14T01:35:57.596Z,26.69
2022-12-14T01:37:55.504Z,26.94
2022-12-14T01:39:53.615Z,26.94
2022-12-14T01:41:52.883Z,26.81
2022-12-14T01:43:50.834Z,26.88
2022-12-14T01:45:48.742Z,27.00
2022-12-14T01:47:46.629Z,26.88
2022-12-14T01:49:44.555Z,26.75
2022-12-14T01:51:45.653Z,27.44
2022-12-14T01:53:43.553Z,27.69
2022-12-14T01:55:42.611Z,27.63
2022-12-14T01:57:46.631Z,27.63
2022-12-14T01:59:44.674Z,27.63
2022-12-14T02:01:42.742Z,27.63
2022-12-14T02:03:40.817Z,27.69
2022-12-14T02:05:39.133Z,27.75
2022-12-14T02:07:38.143Z,27.75
2022-12-14T02:09:36.160Z,27.81
2022-12-14T02:11:34.067Z,27.56
2022-12-14T02:13:31.983Z,27.69
2022-12-14T02:15:29.979Z,27.56
2022-12-14T02:17:27.948Z,27.63
2022-12-14T02:19:25.808Z,27.63
2022-12-14T02:21:24.030Z,27.50
2022-12-14T02:23:22.028Z,27.50
2022-12-14T02:25:20.019Z,27.50
2022-12-14T02:27:18.097Z,26.94
2022-12-14T02:29:15.983Z,27.00
2022-12-14T02:31:14.021Z,27.00
2022-12-14T02:33:12.184Z,26.88
2022-12-14T02:35:10.114Z,26.81
2022-12-14T02:37:08.065Z,26.94
2022-12-14T02:39:06.326Z,26.94
2022-12-14T02:41:04.460Z,26.94
2022-12-14T02:43:02.401Z,26.81
2022-12-14T02:45:00.355Z,27.31
2022-12-14T02:46:58.384Z,27.56
2022-12-14T02:48:56.414Z,27.56
2022-12-14T02:50:54.340Z,27.63
2022-12-14T02:52:52.439Z,27.63
2022-12-14T02:54:50.462Z,27.56
2022-12-14T02:56:48.380Z,27.56
2022-12-14T02:58:48.800Z,27.50
2022-12-14T03:00:47.000Z,27.50
2022-12-14T03:02:44.999Z,27.50
2022-12-14T03:04:47.591Z,27.63
2022-12-14T03:06:45.631Z,27.63
2022-12-14T03:08:43.540Z,27.69
2022-12-14T03:10:41.507Z,27.69
2022-12-14T03:12:39.410Z,27.69
2022-12-14T03:14:37.293Z,27.75
2022-12-14T03:16:35.360Z,27.75
2022-12-14T03:18:33.295Z,27.69
2022-12-14T03:20:31.369Z,27.44
2022-12-14T03:22:29.450Z,27.00
2022-12-14T03:24:27.510Z,27.19
2022-12-14T03:26:25.994Z,27.00
2022-12-14T03:28:23.963Z,26.81
2022-12-14T03:30:57.761Z,26.94
2022-12-14T03:32:39.794Z,26.88
2022-12-14T03:34:38.773Z,26.81
2022-12-14T03:36:36.925Z,27.31
2022-12-14T03:38:34.917Z,27.63
2022-12-14T03:40:32.873Z,27.75
2022-12-14T03:42:30.747Z,27.63
2022-12-14T03:44:28.702Z,27.63
2022-12-14T03:46:26.750Z,27.75
2022-12-14T03:48:24.654Z,27.75
2022-12-14T03:50:22.771Z,27.81
2022-12-14T03:52:20.725Z,27.81
2022-12-14T03:54:18.674Z,27.63
2022-12-14T03:56:16.641Z,27.63
2022-12-14T03:58:14.758Z,28.81
2022-12-14T04:00:13.270Z,28.56
2022-12-14T04:02:11.216Z,26.25
2022-12-14T04:04:09.233Z,23.81
2022-12-14T04:06:07.257Z,27.75
2022-12-14T04:08:05.175Z,28.00
2022-12-14T04:10:03.169Z,28.56
2022-12-14T04:12:18.913Z,28.88
2022-12-14T04:14:34.649Z,29.00
2022-12-14T04:16:50.581Z,29.25
2022-12-14T04:19:00.268Z,29.38
2022-12-14T04:20:58.992Z,29.63
2022-12-14T04:22:57.006Z,29.69
2022-12-14T04:25:12.465Z,29.88
2022-12-14T04:27:10.354Z,29.75
2022-12-14T04:29:26.212Z,29.63
2022-12-14T04:31:24.508Z,29.44
2022-12-14T04:33:39.954Z,29.25
2022-12-14T04:35:37.912Z,29.19
2022-12-14T04:37:35.881Z,29.13
2022-12-14T04:39:34.943Z,29.13
2022-12-14T04:41:34.119Z,28.81
2022-12-14T04:43:32.081Z,28.50
2022-12-14T04:45:30.365Z,28.50
2022-12-14T04:47:28.275Z,28.38
2022-12-14T04:49:26.168Z,28.13
2022-12-14T04:51:24.123Z,28.19
2022-12-14T04:53:22.140Z,28.25
2022-12-14T04:55:20.243Z,27.88
2022-12-14T04:57:19.401Z,27.69
2022-12-14T04:59:17.932Z,27.63
2022-12-14T05:01:15.939Z,27.63
2022-12-14T05:03:14.047Z,27.50
2022-12-14T05:05:12.005Z,27.38
2022-12-14T05:07:10.314Z,27.38
2022-12-14T05:09:08.672Z,27.25
2022-12-14T05:11:30.484Z,26.75
2022-12-14T05:13:26.045Z,26.94
2022-12-14T05:15:24.919Z,27.06
2022-12-14T05:17:22.870Z,26.94
2022-12-14T05:19:26.261Z,26.88
2022-12-14T05:21:41.941Z,27.06
2022-12-14T05:23:39.836Z,26.94
2022-12-14T05:25:37.755Z,26.81
2022-12-14T05:27:35.706Z,26.69
2022-12-14T05:29:33.669Z,26.81
2022-12-14T05:31:31.912Z,26.75
2022-12-14T05:33:30.562Z,26.88
2022-12-14T05:35:28.651Z,26.75
2022-12-14T05:37:26.814Z,26.75
2022-12-14T05:39:24.848Z,26.75
2022-12-14T05:41:22.848Z,27.31
2022-12-14T05:43:20.953Z,27.50
2022-12-14T05:45:19.245Z,27.44
2022-12-14T05:47:17.347Z,27.50
2022-12-14T05:49:15.621Z,27.56
2022-12-14T05:51:13.617Z,27.63
2022-12-14T05:53:11.657Z,27.69
2022-12-14T05:55:10.654Z,27.75
2022-12-14T05:57:08.606Z,27.69
2022-12-14T05:59:06.516Z,27.75
2022-12-14T06:01:04.460Z,27.81
2022-12-14T06:03:02.820Z,27.81
2022-12-14T06:05:00.929Z,27.63
2022-12-14T06:06:58.858Z,27.69
2022-12-14T06:08:57.070Z,27.56
2022-12-14T06:10:55.193Z,27.69
2022-12-14T06:12:53.168Z,27.56
2022-12-14T06:14:51.328Z,27.56
2022-12-14T06:16:50.491Z,27.56
2022-12-14T06:18:48.412Z,27.63
2022-12-14T06:20:46.593Z,27.56
2022-12-14T06:22:47.692Z,27.56
2022-12-14T06:24:45.977Z,27.13
2022-12-14T06:26:43.917Z,27.00
2022-12-14T06:28:41.860Z,26.88
2022-12-14T06:30:39.985Z,27.00
2022-12-14T06:32:38.001Z,26.94
2022-12-14T06:34:39.875Z,27.06
2022-12-14T06:36:39.592Z,27.50
2022-12-14T06:38:37.719Z,27.63
2022-12-14T06:40:35.646Z,27.69
2022-12-14T06:42:33.570Z,27.75
2022-12-14T06:44:31.559Z,27.81
2022-12-14T06:46:29.599Z,27.94
2022-12-14T06:48:27.887Z,27.63
2022-12-14T06:50:25.816Z,27.63
2022-12-14T06:52:26.994Z,27.63
2022-12-14T06:54:25.361Z,27.69
2022-12-14T06:56:23.332Z,27.75
2022-12-14T06:58:21.292Z,27.81
2022-12-14T07:00:20.557Z,29.56
2022-12-14T07:02:19.124Z,30.94
2022-12-14T07:04:18.755Z,31.13
2022-12-14T07:06:16.801Z,31.38
2022-12-14T07:08:14.971Z,31.50
2022-12-14T07:10:13.753Z,31.50
2022-12-14T07:12:11.657Z,31.56
2022-12-14T07:14:09.769Z,31.56
2022-12-14T07:16:08.141Z,31.56
2022-12-14T07:18:06.134Z,31.50
2022-12-14T07:20:04.410Z,31.44
2022-12-14T07:22:04.240Z,28.38
2022-12-14T07:24:02.408Z,27.81
2022-12-14T07:26:01.532Z,25.50
2022-12-14T07:27:59.455Z,23.50
2022-12-14T07:29:58.593Z,27.50
2022-12-14T07:31:56.488Z,27.50
2022-12-14T07:33:54.566Z,28.13
2022-12-14T07:35:52.653Z,28.50
2022-12-14T07:37:50.644Z,28.81
2022-12-14T07:39:48.573Z,29.06
2022-12-14T07:41:47.787Z,29.31
2022-12-14T07:43:45.996Z,29.63
2022-12-14T07:45:48.296Z,30.06
2022-12-14T07:47:46.483Z,30.38
2022-12-14T07:49:44.404Z,30.69
2022-12-14T07:51:44.175Z,31.13
2022-12-14T07:53:42.176Z,31.38
2022-12-14T07:55:40.334Z,31.63
2022-12-14T07:57:38.335Z,31.88
2022-12-14T07:59:36.265Z,32.06
2022-12-14T08:01:34.575Z,32.38
2022-12-14T08:03:32.987Z,32.56
2022-12-14T08:05:39.835Z,32.75
2022-12-14T08:07:40.891Z,32.88
2022-12-14T08:09:39.054Z,33.06
2022-12-14T08:11:37.050Z,33.19
2022-12-14T08:13:34.932Z,33.25
2022-12-14T08:15:33.991Z,33.38
2022-12-14T08:17:32.212Z,33.44
2022-12-14T08:19:30.105Z,33.50
2022-12-14T08:21:28.111Z,33.56
2022-12-14T08:23:26.850Z,33.56
2022-12-14T08:25:25.099Z,33.56
2022-12-14T08:27:23.124Z,33.56
2022-12-14T08:29:22.408Z,33.56
2022-12-14T08:31:20.482Z,33.56
2022-12-14T08:33:18.668Z,33.50
2022-12-14T08:35:16.826Z,33.44
2022-12-14T08:37:14.743Z,33.38
2022-12-14T08:39:13.332Z,33.00
2022-12-14T08:41:11.523Z,29.00
2022-12-14T08:43:09.702Z,27.75
2022-12-14T08:45:07.603Z,25.44
2022-12-14T08:47:05.663Z,29.13
2022-12-14T08:49:04.859Z,29.06
2022-12-14T08:51:03.218Z,29.63
2022-12-14T08:53:01.288Z,30.00
2022-12-14T08:55:00.064Z,30.19
2022-12-14T08:59:24.381Z,30.63
2022-12-14T09:01:33.611Z,31.00
2022-12-14T09:03:32.742Z,31.25
2022-12-14T09:05:31.320Z,31.50
2022-12-14T09:07:29.375Z,31.75
2022-12-14T09:09:27.334Z,32.06
2022-12-14T09:11:25.534Z,32.25
2022-12-14T09:13:23.538Z,32.44
2022-12-14T09:15:22.079Z,32.63
2022-12-14T09:17:20.334Z,32.75
2022-12-14T09:19:18.302Z,32.88
2022-12-14T09:21:16.240Z,33.00
2022-12-14T09:23:14.502Z,33.06
2022-12-14T09:25:12.712Z,33.19
2022-12-14T09:27:11.798Z,33.25
2022-12-14T09:29:09.737Z,33.31
2022-12-14T09:31:08.027Z,33.31
2022-12-14T09:33:06.396Z,33.38
2022-12-14T09:35:04.438Z,33.38
2022-12-14T09:37:06.966Z,33.38
2022-12-14T09:39:05.013Z,33.38
2022-12-14T09:41:06.907Z,33.31
2022-12-14T09:43:05.362Z,33.31
2022-12-14T09:45:03.839Z,33.25
2022-12-14T09:47:03.058Z,33.19
2022-12-14T09:49:01.180Z,33.13
2022-12-14T09:50:59.143Z,33.06
2022-12-14T09:52:57.136Z,33.00
2022-12-14T09:54:55.310Z,32.94
2022-12-14T09:56:53.228Z,32.88
2022-12-14T09:58:51.130Z,32.81
2022-12-14T10:00:53.300Z,32.75
2022-12-14T10:02:51.851Z,32.63
2022-12-14T10:04:50.143Z,32.44
2022-12-14T10:06:48.053Z,28.56
2022-12-14T10:08:51.017Z,27.69
2022-12-14T10:10:52.261Z,25.25
2022-12-14T10:12:50.183Z,28.94
2022-12-14T10:14:48.063Z,28.94
2022-12-14T10:16:51.667Z,29.63
2022-12-14T10:18:59.583Z,29.94
2022-12-14T10:20:59.140Z,30.13
2022-12-14T10:22:58.290Z,30.44
2022-12-14T10:24:56.501Z,30.75
2022-12-14T10:26:54.608Z,31.00
2022-12-14T10:28:59.260Z,31.25
2022-12-14T10:30:59.174Z,31.56
2022-12-14T10:32:57.112Z,31.81
2022-12-14T10:34:55.075Z,32.13
2022-12-14T10:36:53.090Z,32.31
2022-12-14T10:38:52.292Z,32.50
2022-12-14T10:40:50.432Z,32.69
2022-12-14T10:42:49.637Z,32.88
2022-12-14T10:44:49.392Z,33.00
2022-12-14T10:46:49.971Z,33.13
2022-12-14T10:48:47.976Z,33.19
2022-12-14T10:50:49.793Z,33.25
2022-12-14T10:52:48.190Z,33.31
2022-12-14T10:54:46.552Z,33.38
2022-12-14T10:56:44.545Z,33.44
2022-12-14T10:58:49.362Z,33.44
2022-12-14T11:00:47.553Z,33.44
2022-12-14T11:02:46.097Z,33.44
2022-12-14T11:04:48.636Z,33.38
2022-12-14T11:06:47.151Z,33.38
2022-12-14T11:08:47.915Z,33.31
2022-12-14T11:10:46.632Z,33.25
2022-12-14T11:12:44.592Z,33.19
2022-12-14T11:14:42.563Z,33.19
2022-12-14T11:16:41.128Z,33.13
2022-12-14T11:18:39.248Z,33.00
2022-12-14T11:20:37.211Z,32.94
2022-12-14T11:22:35.330Z,32.88
2022-12-14T11:24:35.644Z,29.81
2022-12-14T11:26:33.637Z,29.00
2022-12-14T11:28:37.026Z,26.81
2022-12-14T11:30:35.875Z,28.25
2022-12-14T11:32:34.199Z,29.00
2022-12-14T11:34:32.106Z,29.69
2022-12-14T11:36:30.310Z,30.19
2022-12-14T11:38:28.772Z,30.38
2022-12-14T11:40:27.287Z,30.56
2022-12-14T11:42:25.604Z,30.88
2022-12-14T11:44:23.636Z,31.06
2022-12-14T11:46:21.660Z,31.44
2022-12-14T11:48:20.040Z,31.63
2022-12-14T11:50:18.042Z,31.94
2022-12-14T11:52:17.130Z,32.13
2022-12-14T11:54:15.395Z,32.44
2022-12-14T11:56:13.531Z,32.56
2022-12-14T11:58:11.447Z,32.75
2022-12-14T12:00:09.725Z,32.88
2022-12-14T12:02:08.183Z,33.00
2022-12-14T12:04:06.302Z,33.13
2022-12-14T12:06:04.614Z,33.19
2022-12-14T12:08:02.989Z,33.31
2022-12-14T12:10:02.019Z,33.38
2022-12-14T12:12:00.027Z,33.38
2022-12-14T12:13:59.200Z,33.44
2022-12-14T12:15:57.452Z,33.44
2022-12-14T12:17:56.584Z,33.44
2022-12-14T12:19:54.580Z,33.44
2022-12-14T12:21:52.572Z,33.44
2022-12-14T12:23:50.620Z,33.38
2022-12-14T12:25:48.578Z,33.31
2022-12-14T12:27:47.766Z,33.31
2022-12-14T12:29:46.115Z,33.25
2022-12-14T12:31:44.455Z,33.19
2022-12-14T12:33:42.755Z,33.13
2022-12-14T12:35:40.750Z,33.06
2022-12-14T12:37:38.743Z,33.06
2022-12-14T12:39:37.763Z,32.94
2022-12-14T12:41:35.729Z,32.94
2022-12-14T12:43:34.043Z,32.81
2022-12-14T12:45:32.010Z,32.75
2022-12-14T12:47:38.415Z,32.69
2022-12-14T12:49:44.734Z,32.63
2022-12-14T12:51:42.995Z,32.50
2022-12-14T12:53:40.991Z,32.44
2022-12-14T12:55:39.375Z,32.38
2022-12-14T12:57:37.727Z,28.81
2022-12-14T12:59:35.645Z,28.38
2022-12-14T13:01:33.859Z,25.94
2022-12-14T13:03:32.378Z,28.75
2022-12-14T13:05:47.815Z,28.88
2022-12-14T13:07:46.883Z,29.63
2022-12-14T13:09:45.028Z,30.06
2022-12-14T13:11:42.954Z,30.25
2022-12-14T13:13:44.079Z,30.50
2022-12-14T13:15:42.067Z,30.69
2022-12-14T13:59:49.273Z,30.00
2022-12-14T14:01:47.599Z,30.44
2022-12-14T14:03:46.156Z,30.44
2022-12-14T14:05:44.486Z,30.44
2022-12-14T14:07:42.440Z,30.38
2022-12-14T14:09:40.398Z,30.44
2022-12-14T14:11:39.154Z,30.44
2022-12-14T14:13:38.225Z,30.50
2022-12-14T14:15:36.270Z,30.56
2022-12-14T14:17:35.240Z,30.63
2022-12-14T14:19:33.498Z,30.75
2022-12-14T14:21:31.428Z,30.81
2022-12-14T14:23:29.333Z,30.88
2022-12-14T14:25:27.318Z,31.00
2022-12-14T14:27:25.552Z,31.06
2022-12-14T14:29:23.565Z,31.19
2022-12-14T14:31:21.802Z,31.25
2022-12-14T14:33:44.992Z,31.38
2022-12-14T14:35:38.841Z,31.44
2022-12-14T14:37:37.155Z,31.50
2022-12-14T14:41:53.277Z,31.69
2022-12-14T14:43:51.745Z,31.75
2022-12-14T14:45:49.690Z,31.81
2022-12-14T14:47:47.691Z,31.88
2022-12-14T14:49:47.186Z,31.88
2022-12-14T14:51:46.181Z,31.94
2022-12-14T14:53:45.229Z,32.00
2022-12-14T14:55:53.264Z,32.06
2022-12-14T14:57:51.890Z,32.06
2022-12-14T14:59:50.929Z,32.06
2022-12-14T15:01:49.551Z,32.06
2022-12-14T15:03:47.641Z,28.63
2022-12-14T15:05:46.759Z,28.19
2022-12-14T15:07:47.711Z,26.00
2022-12-14T15:09:45.704Z,23.75
2022-12-14T15:11:43.653Z,27.88
2022-12-14T15:13:41.977Z,28.31
2022-12-14T15:15:40.319Z,28.94
2022-12-14T15:17:38.456Z,29.31
2022-12-14T15:19:38.328Z,29.63
2022-12-14T15:21:38.265Z,29.81
2022-12-14T15:23:36.974Z,30.06
2022-12-14T15:25:35.267Z,30.50
2022-12-14T15:27:34.179Z,30.88
2022-12-14T15:29:32.606Z,31.19
2022-12-14T15:31:30.651Z,31.44
2022-12-14T15:33:29.023Z,31.81
2022-12-14T15:35:27.165Z,32.06
2022-12-14T15:37:25.395Z,32.25
2022-12-14T15:39:23.344Z,32.50
2022-12-14T15:41:21.601Z,32.63
2022-12-14T15:43:19.884Z,32.81
2022-12-14T15:45:18.495Z,33.00
2022-12-14T15:47:16.660Z,33.13
2022-12-14T15:49:15.807Z,33.19
2022-12-14T15:51:13.769Z,33.31
2022-12-14T15:53:12.334Z,33.31
2022-12-14T15:55:10.631Z,33.38
2022-12-14T15:57:09.909Z,33.44
2022-12-14T15:59:08.359Z,33.44
2022-12-14T16:01:06.369Z,33.44
2022-12-14T16:03:04.646Z,33.44
2022-12-14T16:05:02.844Z,33.44
2022-12-14T16:07:07.850Z,33.38
2022-12-14T16:09:06.892Z,33.31
2022-12-14T16:11:04.865Z,33.25
2022-12-14T16:13:02.801Z,33.19
2022-12-14T16:15:00.755Z,33.13
2022-12-14T16:16:58.814Z,33.06
2022-12-14T16:19:08.886Z,32.94
2022-12-14T16:21:13.090Z,32.88
2022-12-14T16:23:12.372Z,32.75
2022-12-14T16:25:10.409Z,32.69
2022-12-14T16:27:08.594Z,32.56
2022-12-14T16:29:06.557Z,32.44
2022-12-14T16:31:04.477Z,32.38
2022-12-14T16:33:02.665Z,32.31
2022-12-14T16:35:00.952Z,29.75
2022-12-14T16:37:30.341Z,28.56
2022-12-14T16:39:19.451Z,26.69
2022-12-14T16:41:17.524Z,24.38
2022-12-14T16:43:15.527Z,28.50
2022-12-14T16:45:13.747Z,29.00
2022-12-14T16:47:12.027Z,29.56
2022-12-14T16:49:10.587Z,29.94
2022-12-14T16:51:17.363Z,30.13
2022-12-14T16:53:16.308Z,30.38
2022-12-14T16:55:14.282Z,30.63
2022-12-14T16:57:12.293Z,31.06
2022-12-14T16:59:10.456Z,31.38
2022-12-14T17:01:08.645Z,31.63
2022-12-14T17:03:06.926Z,31.88
2022-12-14T17:05:05.020Z,32.13
2022-12-14T17:07:03.027Z,32.31
2022-12-14T17:09:01.268Z,32.50
2022-12-14T17:10:59.146Z,32.69
2022-12-14T17:12:57.649Z,32.81
2022-12-14T17:14:55.619Z,32.94
2022-12-14T17:16:53.674Z,33.00
2022-12-14T17:18:51.734Z,33.06
2022-12-14T17:20:49.904Z,33.13
2022-12-14T17:22:49.540Z,33.13
2022-12-14T17:24:48.160Z,33.13
2022-12-14T17:26:47.646Z,33.13
2022-12-14T17:28:45.789Z,33.06
2022-12-14T17:30:45.990Z,33.00
2022-12-14T17:32:44.071Z,32.94
2022-12-14T17:34:42.557Z,32.88
2022-12-14T17:36:40.614Z,32.75
2022-12-14T17:38:38.925Z,32.75
2022-12-14T17:40:37.086Z,32.63
2022-12-14T17:42:35.092Z,32.50
2022-12-14T17:44:33.105Z,32.44
2022-12-14T17:46:31.225Z,32.25
2022-12-14T17:48:29.511Z,32.13
2022-12-14T17:50:27.657Z,32.06
2022-12-14T17:52:25.903Z,32.00
2022-12-14T17:54:28.861Z,31.88
2022-12-14T17:56:28.192Z,31.81
2022-12-14T17:58:26.138Z,31.75
2022-12-14T18:00:41.278Z,31.69
2022-12-14T18:02:40.082Z,31.63
2022-12-14T18:04:38.156Z,31.56
2022-12-14T18:06:36.366Z,31.50
2022-12-14T18:08:34.281Z,31.38
2022-12-14T18:10:33.295Z,31.38
2022-12-14T18:12:31.222Z,31.31
2022-12-14T18:14:29.146Z,28.81
2022-12-14T18:16:28.958Z,27.94
2022-12-14T18:18:29.386Z,25.81
2022-12-14T18:20:27.532Z,29.06
2022-12-14T18:22:25.455Z,29.00
2022-12-14T18:24:26.131Z,29.63
2022-12-14T18:26:24.374Z,30.06
2022-12-14T18:28:22.626Z,30.31
2022-12-14T18:30:20.682Z,30.56
2022-12-14T18:32:18.708Z,30.69
2022-12-14T18:34:16.864Z,30.94
2022-12-14T18:36:15.014Z,31.38
2022-12-14T18:38:13.325Z,31.75
2022-12-14T18:40:11.291Z,31.94
2022-12-14T18:42:09.418Z,32.13
2022-12-14T18:44:07.798Z,32.31
2022-12-14T18:46:05.895Z,32.56
2022-12-14T18:48:04.789Z,32.75
2022-12-14T18:50:02.919Z,32.88
2022-12-14T18:52:01.063Z,33.00
2022-12-14T18:53:59.076Z,33.06
2022-12-14T18:55:57.341Z,33.13
2022-12-14T18:57:55.572Z,33.19
2022-12-14T18:59:54.704Z,33.19
2022-12-14T19:01:52.870Z,33.13
2022-12-14T19:03:51.157Z,33.13
2022-12-14T19:05:49.205Z,33.13
2022-12-14T19:07:47.450Z,33.06
2022-12-14T19:09:45.478Z,33.00
2022-12-14T19:11:43.455Z,32.88
2022-12-14T19:13:45.320Z,32.81
2022-12-14T19:15:43.554Z,32.75
2022-12-14T19:17:41.582Z,32.63
2022-12-14T19:19:44.448Z,32.56
2022-12-14T19:21:43.297Z,32.38
2022-12-14T19:23:41.273Z,32.31
2022-12-14T19:25:39.225Z,32.31
2022-12-14T19:28:19.969Z,32.13
2022-12-14T19:29:55.524Z,32.06
2022-12-14T19:31:54.723Z,32.00
2022-12-14T19:33:54.377Z,31.94
2022-12-14T19:35:52.645Z,31.81
2022-12-14T19:37:50.929Z,31.75
2022-12-14T19:39:49.079Z,31.69
2022-12-14T19:41:47.933Z,31.63
2022-12-14T19:43:45.877Z,31.50
2022-12-14T19:45:44.731Z,31.50
2022-12-14T19:47:44.035Z,31.44
2022-12-14T19:49:41.994Z,31.31
2022-12-14T19:51:41.149Z,31.25
2022-12-14T19:53:39.327Z,31.31
2022-12-14T19:55:37.317Z,30.31
2022-12-14T19:57:35.449Z,28.81
2022-12-14T19:59:33.629Z,27.38
2022-12-14T20:01:35.203Z,25.50
2022-12-14T20:03:33.881Z,28.94
2022-12-14T20:05:32.521Z,28.88
2022-12-14T20:07:30.713Z,29.56
2022-12-14T20:09:29.065Z,30.00
2022-12-14T20:11:26.977Z,30.19
2022-12-14T20:13:26.025Z,30.44
2022-12-14T20:15:23.968Z,30.75
2022-12-14T20:17:21.959Z,31.00
2022-12-14T20:19:19.912Z,31.31
2022-12-14T20:21:21.963Z,31.63
2022-12-14T20:23:20.546Z,32.00
2022-12-14T20:25:18.855Z,32.25
2022-12-14T20:27:16.982Z,32.44
2022-12-14T20:29:15.243Z,32.63
2022-12-14T20:31:13.297Z,32.81
2022-12-14T20:33:11.627Z,32.94
2022-12-14T20:35:12.059Z,33.06
2022-12-14T20:37:10.054Z,33.13
2022-12-14T20:39:08.078Z,33.25
2022-12-14T20:41:06.201Z,33.25
2022-12-14T20:43:04.125Z,33.25
2022-12-14T20:45:06.853Z,33.25
2022-12-14T20:47:05.486Z,33.25
2022-12-14T20:49:03.451Z,33.13
2022-12-14T20:51:01.512Z,33.06
2022-12-14T20:52:59.489Z,33.00
2022-12-14T20:54:57.800Z,32.88
2022-12-14T20:56:56.306Z,32.81
2022-12-14T20:58:54.280Z,32.75
2022-12-14T21:00:52.353Z,32.63
2022-12-14T21:02:50.430Z,32.56
2022-12-14T21:04:48.492Z,32.38
2022-12-14T21:06:46.528Z,32.38
2022-12-14T21:09:05.072Z,32.19
2022-12-14T21:11:23.992Z,32.00
2022-12-14T21:13:20.902Z,31.94
2022-12-14T21:15:19.379Z,31.88
2022-12-14T21:17:17.340Z,31.81
2022-12-14T21:19:16.635Z,31.75
2022-12-14T21:21:14.715Z,31.69
2022-12-14T21:23:12.821Z,31.63
2022-12-14T21:25:10.854Z,31.56
2022-12-14T21:27:08.863Z,31.50
2022-12-14T21:29:06.916Z,31.44
2022-12-14T21:31:04.892Z,31.31
2022-12-14T21:33:04.308Z,31.25
2022-12-14T21:35:02.291Z,31.19
2022-12-14T21:37:00.386Z,29.50
2022-12-14T21:38:58.510Z,28.88
2022-12-14T21:41:14.547Z,27.00
2022-12-14T21:43:12.794Z,25.13
2022-12-14T21:45:11.140Z,28.75
2022-12-14T21:47:09.119Z,29.44
2022-12-14T21:49:07.403Z,30.00
2022-12-14T21:51:05.396Z,30.19
2022-12-14T21:53:03.352Z,30.44
2022-12-14T21:55:03.446Z,30.63
2022-12-14T21:57:18.995Z,30.94
2022-12-14T21:59:16.987Z,31.31
2022-12-14T22:01:15.023Z,31.56
2022-12-14T22:03:13.395Z,31.88
2022-12-14T22:05:11.759Z,32.06
2022-12-14T22:07:10.532Z,32.25
2022-12-14T22:09:08.454Z,32.44
2022-12-14T22:11:06.716Z,32.69
2022-12-14T22:13:04.687Z,32.81
2022-12-14T22:15:02.896Z,32.94
2022-12-14T22:17:01.108Z,33.06
2022-12-14T22:18:59.387Z,33.13
2022-12-14T22:20:57.358Z,33.13
2022-12-14T22:22:56.419Z,33.13
2022-12-14T22:24:54.733Z,33.13
2022-12-14T22:26:52.986Z,33.13
2022-12-14T22:28:50.991Z,33.06
2022-12-14T22:30:49.002Z,33.06
2022-12-14T22:32:48.229Z,32.94
2022-12-14T22:34:46.309Z,32.94
2022-12-14T22:36:44.575Z,32.81
2022-12-14T22:38:42.807Z,32.75
2022-12-14T22:40:40.778Z,32.69
2022-12-14T22:42:38.940Z,32.56
2022-12-14T22:44:37.784Z,32.50
2022-12-14T22:46:35.737Z,32.44
2022-12-14T22:48:33.714Z,32.31
2022-12-14T22:50:33.067Z,32.19
2022-12-14T22:52:31.914Z,32.13
2022-12-14T22:54:30.053Z,32.00
2022-12-14T22:56:28.316Z,32.00
2022-12-14T22:58:26.664Z,31.94
2022-12-14T23:00:24.917Z,30.81
2022-12-14T23:02:23.386Z,30.38
2022-12-14T23:04:21.578Z,29.56
2022-12-14T23:06:19.719Z,29.19
2022-12-14T23:08:17.639Z,27.63
2022-12-14T23:10:33.440Z,25.19
2022-12-14T23:12:48.826Z,29.19
2022-12-14T23:15:04.597Z,29.81
2022-12-14T23:17:20.246Z,30.19
2022-12-14T23:19:35.616Z,30.13
2022-12-14T23:21:51.586Z,30.19
2022-12-14T23:24:07.459Z,30.13
2022-12-14T23:26:23.000Z,30.13
2022-12-14T23:28:38.443Z,30.00
2022-12-14T23:30:54.159Z,29.81
2022-12-14T23:33:09.970Z,29.56
2022-12-14T23:35:25.766Z,29.25
2022-12-14T23:37:41.468Z,29.00
2022-12-14T23:39:57.199Z,28.75
2022-12-14T23:42:13.081Z,28.69
2022-12-14T23:44:28.752Z,28.44
2022-12-14T23:46:44.490Z,28.13
2022-12-14T23:48:59.969Z,28.13
2022-12-14T23:51:15.839Z,27.81
2022-12-14T23:53:32.008Z,27.63
2022-12-14T23:55:47.908Z,27.63
2022-12-14T23:58:03.415Z,27.69
